Em Athens — V7US8 — position and weather

sailwx.info

Track history (hours):
 
Tides and Currents Weather Stations Pressure Air Temp Water Temp Dewpoint Dewpoint Depression Visibility Wind Speed Wind Dir Waves Ship Positions

Em Athens

Last reported at 2017-Sep-20 04:50 UTC. Time now 2017-Sep-22 06:30 UTC.
Position N 30°24' W 009°39'.

Length 207 m; draft 9.1 m.

Type: Ship (hazmat cat A). MMSI: 538004019.

Date/timePositionNaut miles runAvg speedWind from/ knotsBaromVisibWave heightAir tempDewpointWater temp
2017-Sep-20 04:50N 30°24' W 009°39'20 3.0
2017-Sep-19 22:21N 30°33' W 009°59'1213.1
2017-Sep-19 21:26N 30°45' W 010°03'614.9
2017-Sep-19 21:00N 30°51' W 010°04'815.4
2017-Sep-19 20:30N 30°59' W 010°04'815.2
2017-Sep-19 20:00N 31°06' W 010°03'815.0
2017-Sep-19 19:30N 31°14' W 010°01'715.0
2017-Sep-19 19:00N 31°21' W 009°60'714.9
2017-Sep-19 18:30N 31°28' W 009°57'714.9
2017-Sep-19 18:00N 31°35' W 009°54'714.7
2017-Sep-19 17:30N 31°42' W 009°51'714.5
2017-Sep-19 17:00N 31°49' W 009°48'714.3
2017-Sep-19 16:30N 31°55' W 009°44'1014.7
2017-Sep-19 15:51N 32°04' W 009°40'515.1
2017-Sep-19 15:30N 32°09' W 009°38'815.1
2017-Sep-19 15:00N 32°16' W 009°35'814.9
2017-Sep-19 14:30N 32°23' W 009°31'714.8
2017-Sep-19 14:00N 32°30' W 009°28'714.7
2017-Sep-19 13:30N 32°37' W 009°24'714.7
2017-Sep-19 13:00N 32°43' W 009°20'1914.6
2017-Sep-19 11:43N 32°58' W 009°07'414.7
2017-Sep-19 11:25N 33°02' W 009°04'814.5
2017-Sep-19 10:51N 33°09' W 008°59'614.5
2017-Sep-19 10:26N 33°14' W 008°55'24613.6
2017-Sep-18 16:27N 36°08' W 005°24'0 0.0
2017-Sep-18 01:15N 36°08' W 005°24'2 6.1
2017-Sep-18 00:59N 36°06' W 005°24'1 0.1
2017-Sep-17 05:02N 36°05' W 005°25'0 0.3
2017-Sep-17 04:56N 36°05' W 005°25'0 0.1
2017-Sep-17 04:20N 36°05' W 005°25'0 0.1
2017-Sep-17 03:17N 36°05' W 005°25'0 0.3
2017-Sep-17 02:59N 36°05' W 005°25'0 0.2
2017-Sep-17 02:29N 36°05' W 005°25'0 0.0
2017-Sep-17 01:59N 36°05' W 005°25'0 0.1
2017-Sep-17 01:20N 36°05' W 005°25'1 0.7
2017-Sep-16 23:21N 36°05' W 005°23'2 5.5
2017-Sep-16 23:00N 36°03' W 005°23'4 8.4
2017-Sep-16 22:30N 35°59' W 005°25'9 0.8
2017-Sep-16 11:25N 35°54' W 005°33'27 0.8
2017-Sep-15 02:37N 35°49' W 006°06'0 1.7
2017-Sep-15 02:29N 35°49' W 006°07'1 1.6
2017-Sep-15 01:58N 35°48' W 006°07'1 1.5
2017-Sep-15 01:30N 35°48' W 006°08'1 1.5
2017-Sep-15 00:59N 35°47' W 006°08'1 1.2
2017-Sep-15 00:19N 35°46' W 006°08'1 0.9
2017-Sep-14 23:07N 35°45' W 006°08'0 0.6
2017-Sep-14 22:56N 35°45' W 006°08'0 0.2
2017-Sep-14 21:09N 35°45' W 006°08'0 1.2
2017-Sep-14 21:00N 35°45' W 006°08'1 1.2
2017-Sep-14 20:25N 35°46' W 006°08'7 2.8
2017-Sep-14 18:06N 35°40' W 006°05'1 5.3
2017-Sep-14 17:57N 35°41' W 006°05'2 1.7
2017-Sep-14 16:59N 35°42' W 006°04'1 1.8
2017-Sep-14 16:16N 35°43' W 006°04'0 1.6
2017-Sep-14 15:58N 35°44' W 006°04'1 1.3
2017-Sep-14 15:18N 35°45' W 006°04'1 1.5
2017-Sep-14 14:45N 35°45' W 006°04'1 1.5
2017-Sep-14 13:45N 35°45' W 006°06'415.4
2017-Sep-14 13:30N 35°42' W 006°09'3215.6
2017-Sep-14 11:27N 35°15' W 006°30'5015.7
2017-Sep-14 08:17N 34°34' W 007°06'415.6
2017-Sep-14 08:00N 34°30' W 007°08'1215.6
2017-Sep-14 07:16N 34°21' W 007°16'  
2017-Sep-10 21:48N 35°57' W 005°42'710.4
2017-Sep-10 21:10N 35°57' W 005°34'210.1
2017-Sep-10 21:00N 35°57' W 005°32'  
Track history (hours):
 
Tides and Currents Weather Stations Pressure Air Temp Water Temp Dewpoint Dewpoint Depression Visibility Wind Speed Wind Dir Waves Ship Positions

Em Athens

Last reported at 2017-Sep-20 04:50 UTC. Time now 2017-Sep-22 06:30 UTC.
Position N 30°24' W 009°39'.

Length 207 m; draft 9.1 m.

Type: Ship (hazmat cat A). MMSI: 538004019.

Date/timePositionNaut miles runAvg speedWind from/ knotsBaromVisibWave heightAir tempDewpointWater temp
2017-Sep-20 04:50N 30°24' W 009°39'20 3.0
2017-Sep-19 22:21N 30°33' W 009°59'1213.1
2017-Sep-19 21:26N 30°45' W 010°03'614.9
2017-Sep-19 21:00N 30°51' W 010°04'815.4
2017-Sep-19 20:30N 30°59' W 010°04'815.2
2017-Sep-19 20:00N 31°06' W 010°03'815.0
2017-Sep-19 19:30N 31°14' W 010°01'715.0
2017-Sep-19 19:00N 31°21' W 009°60'714.9
2017-Sep-19 18:30N 31°28' W 009°57'714.9
2017-Sep-19 18:00N 31°35' W 009°54'714.7
2017-Sep-19 17:30N 31°42' W 009°51'714.5
2017-Sep-19 17:00N 31°49' W 009°48'714.3
2017-Sep-19 16:30N 31°55' W 009°44'1014.7
2017-Sep-19 15:51N 32°04' W 009°40'515.1
2017-Sep-19 15:30N 32°09' W 009°38'815.1
2017-Sep-19 15:00N 32°16' W 009°35'814.9
2017-Sep-19 14:30N 32°23' W 009°31'714.8
2017-Sep-19 14:00N 32°30' W 009°28'714.7
2017-Sep-19 13:30N 32°37' W 009°24'714.7
2017-Sep-19 13:00N 32°43' W 009°20'1914.6
2017-Sep-19 11:43N 32°58' W 009°07'414.7
2017-Sep-19 11:25N 33°02' W 009°04'814.5
2017-Sep-19 10:51N 33°09' W 008°59'614.5
2017-Sep-19 10:26N 33°14' W 008°55'24613.6
2017-Sep-18 16:27N 36°08' W 005°24'0 0.0
2017-Sep-18 01:15N 36°08' W 005°24'2 6.1
2017-Sep-18 00:59N 36°06' W 005°24'1 0.1
2017-Sep-17 05:02N 36°05' W 005°25'0 0.3
2017-Sep-17 04:56N 36°05' W 005°25'0 0.1
2017-Sep-17 04:20N 36°05' W 005°25'0 0.1
2017-Sep-17 03:17N 36°05' W 005°25'0 0.3
2017-Sep-17 02:59N 36°05' W 005°25'0 0.2
2017-Sep-17 02:29N 36°05' W 005°25'0 0.0
2017-Sep-17 01:59N 36°05' W 005°25'0 0.1
2017-Sep-17 01:20N 36°05' W 005°25'1 0.7
2017-Sep-16 23:21N 36°05' W 005°23'2 5.5
2017-Sep-16 23:00N 36°03' W 005°23'4 8.4
2017-Sep-16 22:30N 35°59' W 005°25'9 0.8
2017-Sep-16 11:25N 35°54' W 005°33'27 0.8
2017-Sep-15 02:37N 35°49' W 006°06'0 1.7
2017-Sep-15 02:29N 35°49' W 006°07'1 1.6
2017-Sep-15 01:58N 35°48' W 006°07'1 1.5
2017-Sep-15 01:30N 35°48' W 006°08'1 1.5
2017-Sep-15 00:59N 35°47' W 006°08'1 1.2
2017-Sep-15 00:19N 35°46' W 006°08'1 0.9
2017-Sep-14 23:07N 35°45' W 006°08'0 0.6
2017-Sep-14 22:56N 35°45' W 006°08'0 0.2
2017-Sep-14 21:09N 35°45' W 006°08'0 1.2
2017-Sep-14 21:00N 35°45' W 006°08'1 1.2
2017-Sep-14 20:25N 35°46' W 006°08'7 2.8
2017-Sep-14 18:06N 35°40' W 006°05'1 5.3
2017-Sep-14 17:57N 35°41' W 006°05'2 1.7
2017-Sep-14 16:59N 35°42' W 006°04'1 1.8
2017-Sep-14 16:16N 35°43' W 006°04'0 1.6
2017-Sep-14 15:58N 35°44' W 006°04'1 1.3
2017-Sep-14 15:18N 35°45' W 006°04'1 1.5
2017-Sep-14 14:45N 35°45' W 006°04'1 1.5
2017-Sep-14 13:45N 35°45' W 006°06'415.4
2017-Sep-14 13:30N 35°42' W 006°09'3215.6
2017-Sep-14 11:27N 35°15' W 006°30'5015.7
2017-Sep-14 08:17N 34°34' W 007°06'415.6
2017-Sep-14 08:00N 34°30' W 007°08'1215.6
2017-Sep-14 07:16N 34°21' W 007°16'  
2017-Sep-10 21:48N 35°57' W 005°42'710.4
2017-Sep-10 21:10N 35°57' W 005°34'210.1
2017-Sep-10 21:00N 35°57' W 005°32'  

Dump ship's entire track history